Time;durP1;ratioP1;P1;durP2;ratioP2;P2;SDS_P1;SDS_P2;PMS_P1;PMS_P2;Temp;Humidity;BMP_temperature;BMP_pressure;BME280_temperature;BME280_humidity;BME280_pressure;Samples;Min_cycle;Max_cycle;Signal;HPM_P1;HPM_P2
2023/02/21 02:16:40;;;;;;;2.50;1.90;;;;;;;10.09;100.00;99646.77;186467;1233;43638;-84
2023/02/21 02:21:19;;;;;;;2.40;1.50;;;;;;;10.09;100.00;99628.72;186430;1233;57230;-84
2023/02/21 02:25:59;;;;;;;3.40;1.90;;;;;;;10.10;100.00;99645.09;186627;1232;43809;-84
2023/02/21 02:30:00;;;;;;;3.00;1.40;;;;;;;10.06;100.00;99629.66;186434;1233;43718;-84
2023/02/21 02:34:21;;;;;;;2.10;1.20;;;;;;;10.07;100.00;99641.27;186526;1234;43691;-84
2023/02/21 02:38:23;;;;;;;1.80;1.00;;;;;;;10.09;100.00;99629.26;186597;1232;43929;-85
2023/02/21 02:42:40;;;;;;;2.80;1.90;;;;;;;10.16;100.00;99622.39;186397;1232;59036;-85
2023/02/21 02:46:46;;;;;;;1.30;1.20;;;;;;;10.09;100.00;99622.11;186487;1236;44056;-85
2023/02/21 02:50:51;;;;;;;2.00;1.70;;;;;;;10.12;100.00;99630.38;186447;1233;43661;-85
2023/02/21 02:55:04;;;;;;;2.10;1.50;;;;;;;10.11;100.00;99625.52;186735;1232;43794;-84
2023/02/21 02:59:13;;;;;;;2.70;2.00;;;;;;;10.08;100.00;99623.66;186294;1233;44078;-84
2023/02/21 03:03:24;;;;;;;2.30;1.50;;;;;;;10.13;100.00;99630.63;186308;1232;58683;-84
2023/02/21 03:07:40;;;;;;;3.10;2.00;;;;;;;10.08;100.00;99625.80;186422;1232;44170;-84
2023/02/21 03:11:58;;;;;;;3.50;1.60;;;;;;;10.10;100.00;99628.66;186509;1233;43763;-84
2023/02/21 03:16:49;;;;;;;3.60;2.00;;;;;;;10.11;100.00;99625.53;186440;1233;44091;-84
2023/02/21 03:20:57;;;;;;;3.00;1.90;;;;;;;10.12;100.00;99627.73;186501;1233;44001;-85
2023/02/21 03:25:01;;;;;;;3.60;1.70;;;;;;;10.15;100.00;99611.68;186366;1232;56905;-84
2023/02/21 03:29:03;;;;;;;5.10;2.80;;;;;;;10.16;100.00;99613.55;186633;1236;43729;-85
2023/02/21 03:37:09;;;;;;;3.90;2.90;;;;;;;10.23;100.00;99619.30;186380;1232;43951;-85
2023/02/21 03:41:12;;;;;;;7.40;2.40;;;;;;;10.24;100.00;99602.17;186611;1233;43950;-85
2023/02/21 03:45:14;;;;;;;3.50;3.10;;;;;;;10.32;100.00;99622.06;186158;1234;244723;-85
2023/02/21 03:49:15;;;;;;;8.60;4.30;;;;;;;10.29;100.00;99624.09;186319;1233;43975;-84
2023/02/21 03:53:17;;;;;;;8.70;3.50;;;;;;;10.37;100.00;99627.66;186284;1234;44132;-85
2023/02/21 03:57:18;;;;;;;5.80;3.90;;;;;;;10.34;100.00;99613.23;186324;1232;43636;-84
2023/02/21 04:01:20;;;;;;;7.20;3.90;;;;;;;10.37;100.00;99619.89;186209;1234;43800;-83
2023/02/21 04:05:22;;;;;;;5.90;3.30;;;;;;;10.37;100.00;99626.20;186201;1234;59262;-84
2023/02/21 04:09:25;;;;;;;3.80;3.10;;;;;;;10.45;99.97;99616.52;186226;1233;43801;-85
2023/02/21 04:13:26;;;;;;;4.50;3.30;;;;;;;10.46;99.91;99626.31;186216;1233;44065;-84
2023/02/21 04:17:28;;;;;;;3.20;2.50;;;;;;;10.44;99.83;99634.30;186457;1234;43908;-84
2023/02/21 04:21:30;;;;;;;4.60;3.00;;;;;;;10.37;99.93;99643.06;186233;1234;43939;-86
2023/02/21 04:25:35;;;;;;;6.80;4.50;;;;;;;10.35;100.00;99643.42;186236;1233;59106;-86
2023/02/21 04:29:37;;;;;;;6.00;4.50;;;;;;;10.31;100.00;99645.52;186453;1233;43865;-86
2023/02/21 04:33:39;;;;;;;6.90;4.00;;;;;;;10.26;100.00;99654.70;186392;1232;43698;-86
2023/02/21 04:37:43;;;;;;;4.50;2.90;;;;;;;10.26;100.00;99645.51;186460;1233;44005;-86
2023/02/21 04:41:45;;;;;;;6.20;3.80;;;;;;;10.25;100.00;99651.20;186252;1233;44049;-86
2023/02/21 04:45:47;;;;;;;5.30;4.00;;;;;;;10.27;100.00;99667.73;186343;1235;58389;-86
2023/02/21 04:49:51;;;;;;;4.90;3.70;;;;;;;10.30;100.00;99656.82;186442;1233;44000;-86
2023/02/21 04:53:54;;;;;;;4.50;4.10;;;;;;;10.31;100.00;99643.09;186291;1233;43928;-86
2023/02/21 04:57:55;;;;;;;7.00;4.30;;;;;;;10.25;100.00;99657.95;186376;1234;44109;-86
2023/02/21 05:01:58;;;;;;;5.40;4.60;;;;;;;10.28;100.00;99645.59;186301;1233;43914;-86
2023/02/21 05:06:04;;;;;;;4.90;3.80;;;;;;;10.27;100.00;99647.52;186559;1233;60607;-88
2023/02/21 05:10:06;;;;;;;7.30;4.40;;;;;;;10.25;100.00;99645.56;186777;1234;43817;-87
2023/02/21 05:14:09;;;;;;;4.20;3.70;;;;;;;10.20;100.00;99655.16;186474;1233;43629;-86
2023/02/21 05:18:11;;;;;;;3.80;3.50;;;;;;;10.18;100.00;99644.61;186510;1233;44070;-87
2023/02/21 05:22:19;;;;;;;4.50;4.00;;;;;;;10.23;100.00;99660.92;186552;1233;43723;-86
2023/02/21 05:26:24;;;;;;;4.60;4.00;;;;;;;10.19;100.00;99660.92;186537;1233;59563;-87
2023/02/21 05:30:26;;;;;;;4.10;3.80;;;;;;;10.24;100.00;99663.19;186802;1233;43989;-88
2023/02/21 05:34:27;;;;;;;6.50;3.60;;;;;;;10.26;100.00;99673.99;186506;1233;43952;-86
2023/02/21 05:38:29;;;;;;;7.60;4.20;;;;;;;10.25;100.00;99676.18;186255;1232;43617;-86
2023/02/21 05:42:32;;;;;;;5.60;3.90;;;;;;;10.17;100.00;99673.14;186218;1233;43661;-86
2023/02/21 05:46:34;;;;;;;6.20;4.40;;;;;;;10.16;100.00;99672.25;186170;1234;57852;-86
2023/02/21 05:50:38;;;;;;;5.90;4.80;;;;;;;10.13;100.00;99685.40;186157;1232;44098;-86
2023/02/21 05:54:40;;;;;;;6.50;5.50;;;;;;;10.10;100.00;99692.61;186239;1234;44066;-86
2023/02/21 05:58:43;;;;;;;6.00;5.50;;;;;;;10.19;100.00;99696.92;186087;1233;43688;-86
2023/02/21 06:02:45;;;;;;;8.20;5.60;;;;;;;10.12;100.00;99704.81;186531;1236;43702;-87
2023/02/21 06:06:47;;;;;;;7.30;5.50;;;;;;;10.15;100.00;99686.50;186282;1234;59127;-86
2023/02/21 06:10:49;;;;;;;5.20;4.70;;;;;;;10.13;100.00;99701.37;186289;1234;43719;-86
2023/02/21 06:14:51;;;;;;;8.90;6.90;;;;;;;10.10;100.00;99701.45;186290;1232;43650;-86
2023/02/21 06:18:55;;;;;;;8.20;6.40;;;;;;;10.18;100.00;99703.53;186305;1236;43842;-86
2023/02/21 06:22:57;;;;;;;9.80;6.40;;;;;;;10.24;100.00;99714.59;186230;1236;44106;-86
2023/02/21 06:26:58;;;;;;;11.00;7.50;;;;;;;10.26;100.00;99717.06;186217;1234;59084;-86
2023/02/21 06:31:00;;;;;;;14.70;7.00;;;;;;;10.26;100.00;99715.60;186315;1233;43827;-86
2023/02/21 06:35:03;;;;;;;8.30;5.70;;;;;;;10.31;100.00;99717.86;186247;1236;43733;-86
2023/02/21 06:39:06;;;;;;;9.30;8.00;;;;;;;10.32;100.00;99723.56;186115;1233;44194;-86
2023/02/21 06:43:09;;;;;;;7.40;6.60;;;;;;;10.35;100.00;99722.23;186311;1233;43785;-86
2023/02/21 06:47:10;;;;;;;8.10;6.70;;;;;;;10.26;100.00;99722.34;186276;1234;59184;-86
2023/02/21 06:51:13;;;;;;;9.80;7.80;;;;;;;10.16;100.00;99746.78;186219;1236;43799;-86
2023/02/21 06:55:21;;;;;;;13.50;9.30;;;;;;;10.10;100.00;99749.48;186254;1233;43759;-86
2023/02/21 06:59:29;;;;;;;9.50;8.10;;;;;;;10.05;100.00;99754.30;186205;1233;44186;-86
2023/02/21 07:03:31;;;;;;;8.10;7.20;;;;;;;10.10;100.00;99748.37;186091;1233;43683;-86
2023/02/21 07:07:32;;;;;;;12.00;8.70;;;;;;;10.21;100.00;99745.34;186060;1233;58086;-86
2023/02/21 07:11:35;;;;;;;11.60;6.60;;;;;;;10.23;100.00;99756.27;186242;1234;44015;-86
2023/02/21 07:15:37;;;;;;;13.90;7.30;;;;;;;10.16;100.00;99765.94;186382;1232;43723;-86
2023/02/21 07:19:41;;;;;;;9.60;6.60;;;;;;;10.14;100.00;99775.98;186061;1236;43664;-86
2023/02/21 07:23:43;;;;;;;7.10;6.00;;;;;;;10.05;100.00;99784.45;186036;1233;43707;-86
2023/02/21 07:27:49;;;;;;;7.10;5.70;;;;;;;10.11;100.00;99774.48;186207;1234;59715;-86
2023/02/21 07:31:52;;;;;;;10.50;7.20;;;;;;;10.17;100.00;99783.55;186183;1233;43649;-86
2023/02/21 07:35:54;;;;;;;7.90;6.00;;;;;;;10.16;100.00;99783.34;186130;1234;43673;-86
2023/02/21 07:39:56;;;;;;;8.70;6.20;;;;;;;10.29;100.00;99789.65;186236;1235;43694;-86
2023/02/21 07:43:58;;;;;;;5.90;5.40;;;;;;;10.40;100.00;99782.25;186443;1232;43740;-85
2023/02/21 07:48:00;;;;;;;5.70;5.20;;;;;;;10.46;100.00;99783.90;186246;1234;59430;-86
2023/02/21 07:52:01;;;;;;;8.50;5.30;;;;;;;10.41;100.00;99781.14;186211;1232;43934;-86
2023/02/21 07:56:03;;;;;;;5.70;4.10;;;;;;;10.46;100.00;99796.48;186159;1233;43721;-85
2023/02/21 08:00:06;;;;;;;6.80;5.50;;;;;;;10.49;100.00;99793.52;186095;1234;43780;-85
2023/02/21 08:04:08;;;;;;;7.50;4.60;;;;;;;10.57;100.00;99793.77;186231;1233;44058;-86
2023/02/21 08:08:10;;;;;;;5.40;4.20;;;;;;;10.67;100.00;99797.08;186096;1234;59241;-86
2023/02/21 08:12:11;;;;;;;6.70;4.80;;;;;;;10.74;100.00;99794.37;186176;1232;44051;-86
2023/02/21 08:16:14;;;;;;;6.90;5.80;;;;;;;10.81;100.00;99794.77;186046;1234;43950;-86
2023/02/21 08:20:17;;;;;;;6.80;5.00;;;;;;;10.92;100.00;99803.05;186215;1234;43913;-86
2023/02/21 08:24:18;;;;;;;6.00;5.20;;;;;;;11.07;100.00;99794.90;186082;1234;43800;-86
2023/02/21 08:28:20;;;;;;;4.80;4.10;;;;;;;11.15;100.00;99790.10;186189;1234;61006;-86
2023/02/21 08:32:22;;;;;;;8.70;5.80;;;;;;;11.16;100.00;99802.63;186178;1233;43951;-86
2023/02/21 08:36:33;;;;;;;7.80;5.30;;;;;;;11.06;100.00;99807.83;186275;1234;43739;-86
2023/02/21 08:40:35;;;;;;;5.90;3.70;;;;;;;11.04;100.00;99809.61;186277;1233;44020;-86
2023/02/21 08:44:37;;;;;;;3.60;2.90;;;;;;;10.95;100.00;99814.98;185996;1234;43749;-86
2023/02/21 08:48:38;;;;;;;4.60;3.70;;;;;;;10.96;100.00;99818.93;186292;1235;59399;-86
2023/02/21 08:52:40;;;;;;;5.70;3.70;;;;;;;11.07;100.00;99822.59;186323;1235;43790;-86
2023/02/21 08:56:42;;;;;;;6.60;4.10;;;;;;;11.09;100.00;99820.85;186294;1234;43816;-86
2023/02/21 09:00:44;;;;;;;4.80;3.40;;;;;;;11.06;100.00;99832.48;186279;1235;43666;-86
2023/02/21 09:04:46;;;;;;;5.10;3.40;;;;;;;10.97;100.00;99831.02;186244;1235;44077;-86
2023/02/21 09:08:48;;;;;;;5.50;3.40;;;;;;;10.96;100.00;99821.13;186248;1234;59396;-85
2023/02/21 09:12:50;;;;;;;5.30;3.90;;;;;;;10.96;100.00;99831.42;186424;1234;43902;-86
2023/02/21 09:16:51;;;;;;;5.00;2.80;;;;;;;11.01;100.00;99824.88;186272;1235;43797;-86
2023/02/21 09:20:56;;;;;;;4.90;3.60;;;;;;;11.10;100.00;99836.14;186217;1234;43817;-86
2023/02/21 09:24:59;;;;;;;5.30;3.90;;;;;;;11.23;100.00;99830.16;186220;1234;44006;-86
2023/02/21 09:29:01;;;;;;;4.80;3.20;;;;;;;11.33;100.00;99834.64;186151;1232;56917;-86
2023/02/21 09:33:02;;;;;;;3.80;3.10;;;;;;;11.37;100.00;99835.85;186150;1233;44061;-86
2023/02/21 09:37:05;;;;;;;4.60;2.50;;;;;;;11.38;100.00;99833.06;186086;1234;43777;-86
2023/02/21 09:41:09;;;;;;;3.20;2.50;;;;;;;11.15;100.00;99854.71;186077;1233;43699;-86
2023/02/21 09:45:16;;;;;;;3.60;2.90;;;;;;;10.91;100.00;99857.39;186313;1234;43743;-86
2023/02/21 09:49:25;;;;;;;4.90;4.00;;;;;;;10.54;100.00;99859.12;186139;1235;59114;-85
2023/02/21 09:53:34;;;;;;;4.80;3.30;;;;;;;10.49;100.00;99862.49;186189;1235;43847;-85
2023/02/21 09:57:35;;;;;;;3.80;3.50;;;;;;;10.59;100.00;99867.00;186189;1233;43729;-86
2023/02/21 10:02:17;;;;;;;3.80;3.40;;;;;;;10.58;100.00;99851.29;186194;1234;43592;-86
2023/02/21 10:06:28;;;;;;;6.70;3.20;;;;;;;10.47;100.00;99852.09;186196;1235;43765;-85
2023/02/21 10:10:38;;;;;;;4.60;3.80;;;;;;;10.53;100.00;99862.87;186417;1234;57963;-86
2023/02/21 10:15:11;;;;;;;4.90;3.70;;;;;;;10.60;100.00;99860.65;186075;1233;43831;-86
2023/02/21 10:19:21;;;;;;;4.20;3.80;;;;;;;10.68;100.00;99861.40;186353;1233;43758;-85
2023/02/21 10:23:29;;;;;;;3.50;3.20;;;;;;;10.79;100.00;99861.36;186243;1235;43679;-86
2023/02/21 10:27:34;;;;;;;3.10;2.80;;;;;;;10.92;100.00;99866.39;186251;1233;43839;-86
2023/02/21 10:31:40;;;;;;;3.20;2.70;;;;;;;10.94;100.00;99866.36;186203;1235;59276;-86
2023/02/21 10:35:43;;;;;;;2.80;2.60;;;;;;;11.06;100.00;99880.16;186167;1232;43783;-86
2023/02/21 10:39:50;;;;;;;3.70;2.50;;;;;;;11.18;100.00;99872.52;186114;1234;43755;-86
2023/02/21 10:43:58;;;;;;;4.60;3.40;;;;;;;11.15;100.00;99892.00;186295;1235;44049;-86
2023/02/21 10:48:04;;;;;;;4.00;3.20;;;;;;;10.99;100.00;99888.08;186104;1233;43679;-86
2023/02/21 10:52:06;;;;;;;;;;;;;;;10.97;100.00;99892.86;186242;1234;59492;-86
2023/02/21 10:56:07;;;;;;;4.10;3.60;;;;;;;11.00;100.00;99897.77;186423;1236;43494;-86
2023/02/21 11:00:25;;;;;;;5.70;4.60;;;;;;;10.99;100.00;99901.38;186421;1233;43732;-86
2023/02/21 11:04:33;;;;;;;6.70;4.30;;;;;;;10.97;100.00;99879.20;186219;1233;44099;-86
2023/02/21 11:08:40;;;;;;;4.90;3.20;;;;;;;10.88;100.00;99893.63;186268;1235;43761;-85
2023/02/21 11:12:43;;;;;;;4.10;2.60;;;;;;;10.72;100.00;99903.10;186166;1233;58099;-85
2023/02/21 11:16:44;;;;;;;5.10;4.20;;;;;;;10.57;100.00;99896.23;186237;1235;43811;-86
2023/02/21 11:20:48;;;;;;;3.80;3.10;;;;;;;10.54;100.00;99910.34;186162;1235;44282;-86
2023/02/21 11:24:50;;;;;;;4.10;3.10;;;;;;;10.53;100.00;99914.16;186209;1235;43918;-86
2023/02/21 11:28:52;;;;;;;3.40;3.10;;;;;;;10.52;100.00;99917.04;186358;1235;43707;-86
2023/02/21 11:32:56;;;;;;;2.10;1.30;;;;;;;10.60;100.00;99915.66;186055;1232;59190;-86
2023/02/21 11:37:03;;;;;;;1.20;0.90;;;;;;;10.59;100.00;99917.88;186095;1234;43729;-85
2023/02/21 11:41:20;;;;;;;1.90;1.00;;;;;;;10.63;100.00;99919.86;186095;1234;43770;-86
2023/02/21 11:45:29;;;;;;;1.00;0.90;;;;;;;10.64;100.00;99916.35;186349;1235;43941;-86
2023/02/21 11:49:31;;;;;;;3.20;1.60;;;;;;;10.81;100.00;99918.75;186339;1234;43949;-86
2023/02/21 11:53:41;;;;;;;2.20;2.10;;;;;;;10.94;100.00;99920.29;186402;1236;57781;-86
2023/02/21 11:58:03;;;;;;;4.00;2.80;;;;;;;11.31;100.00;99918.62;186090;1233;43851;-86
2023/02/21 12:02:23;;;;;;;6.70;4.50;;;;;;;11.60;100.00;99918.83;186329;1234;43990;-86
2023/02/21 12:06:28;;;;;;;8.30;6.50;;;;;;;11.87;100.00;99910.44;186317;1233;43996;-86
2023/02/21 12:10:55;;;;;;;6.10;5.30;;;;;;;11.96;100.00;99906.23;186352;1235;43725;-86
2023/02/21 12:15:27;;;;;;;6.30;5.60;;;;;;;11.98;100.00;99905.73;186188;1233;58985;-85
2023/02/21 12:19:50;;;;;;;4.20;3.30;;;;;;;11.96;100.00;99904.67;186212;1234;43769;-86
2023/02/21 12:23:58;;;;;;;4.40;3.80;;;;;;;11.98;100.00;99896.36;186400;1234;44015;-86
2023/02/21 12:28:37;;;;;;;5.70;3.20;;;;;;;12.04;100.00;99891.89;186245;1233;43622;-85
2023/02/21 12:33:06;;;;;;;4.90;2.80;;;;;;;12.06;100.00;99891.91;186389;1232;43871;-86
2023/02/21 12:37:36;;;;;;;7.60;4.30;;;;;;;12.02;100.00;99892.55;186116;1234;57971;-86
2023/02/21 12:42:05;;;;;;;4.20;3.40;;;;;;;12.11;100.00;99893.66;186292;1235;43626;-86
2023/02/21 12:46:16;;;;;;;4.50;3.80;;;;;;;12.10;100.00;99893.59;186240;1233;43729;-86
2023/02/21 12:50:25;;;;;;;3.90;3.20;;;;;;;12.00;100.00;99891.34;186208;1233;43726;-86
2023/02/21 12:54:33;;;;;;;3.00;2.60;;;;;;;12.01;100.00;99899.92;186324;1233;43666;-85
2023/02/21 12:58:51;;;;;;;3.90;3.10;;;;;;;11.98;100.00;99893.52;186332;1234;59272;-86
2023/02/21 13:03:16;;;;;;;3.50;2.70;;;;;;;11.85;100.00;99897.34;186216;1234;43807;-86
2023/02/21 13:07:35;;;;;;;18.20;11.50;;;;;;;11.76;100.00;99899.25;186190;1233;43771;-86
2023/02/21 13:11:59;;;;;;;15.40;10.00;;;;;;;11.85;100.00;99901.61;186189;1233;44088;-86
2023/02/21 13:16:04;;;;;;;6.30;3.90;;;;;;;11.94;100.00;99903.06;186252;1233;43681;-86
2023/02/21 13:20:16;;;;;;;5.10;4.30;;;;;;;11.99;100.00;99903.16;186287;1233;59264;-86
2023/02/21 13:24:30;;;;;;;5.00;3.70;;;;;;;12.03;100.00;99894.44;186104;1234;44056;-86
2023/02/21 13:28:35;;;;;;;3.70;3.00;;;;;;;11.93;100.00;99901.76;186185;1234;44051;-86
2023/02/21 13:32:39;;;;;;;3.20;1.90;;;;;;;11.76;100.00;99897.25;186062;1234;43954;-86
2023/02/21 13:36:43;;;;;;;3.30;2.80;;;;;;;11.66;100.00;99909.24;186137;1233;44003;-87
2023/02/21 13:41:15;;;;;;;5.70;4.10;;;;;;;11.85;100.00;99908.34;186193;1236;59961;-86
2023/02/21 13:45:22;;;;;;;41.10;18.20;;;;;;;12.16;100.00;99904.61;186227;1234;44082;-85
2023/02/21 13:49:40;;;;;;;18.30;8.80;;;;;;;12.34;100.00;99903.27;186145;1233;43923;-86
2023/02/21 13:54:08;;;;;;;10.20;7.00;;;;;;;12.31;100.00;99891.14;186306;1234;43972;-86
2023/02/21 13:58:09;;;;;;;5.80;3.90;;;;;;;12.32;100.00;99900.09;186200;1233;43804;-86
2023/02/21 14:02:20;;;;;;;11.80;6.00;;;;;;;12.28;100.00;99901.54;186320;1236;58158;-86
2023/02/21 14:06:34;;;;;;;7.10;5.60;;;;;;;12.41;100.00;99891.60;186105;1234;44029;-84
2023/02/21 14:11:05;;;;;;;8.10;6.00;;;;;;;12.54;100.00;99893.22;186266;1234;43735;-85
2023/02/21 14:15:08;;;;;;;5.40;3.80;;;;;;;12.49;99.62;99882.52;186172;1234;43894;-86
2023/02/21 14:19:16;;;;;;;4.50;3.90;;;;;;;12.33;99.93;99885.36;186200;1233;43805;-85
2023/02/21 14:23:19;;;;;;;5.00;4.30;;;;;;;12.16;100.00;99891.84;186180;1234;56824;-87
2023/02/21 14:27:21;;;;;;;9.00;5.70;;;;;;;12.02;100.00;99898.59;186049;1234;44810;-86
2023/02/21 14:31:46;;;;;;;6.10;4.70;;;;;;;11.97;100.00;99908.68;186267;1234;43801;-87
2023/02/21 14:36:11;;;;;;;7.00;5.50;;;;;;;11.84;100.00;99915.73;186129;1234;43804;-85
2023/02/21 14:40:17;;;;;;;14.80;7.30;;;;;;;11.75;100.00;99924.37;186186;1233;43933;-85
2023/02/21 14:44:48;;;;;;;6.60;5.70;;;;;;;11.60;100.00;99918.60;186315;1232;57896;-86
2023/02/21 14:48:59;;;;;;;12.50;6.80;;;;;;;11.52;100.00;99916.11;186075;1234;43757;-85
2023/02/21 14:53:30;;;;;;;5.20;4.70;;;;;;;11.43;100.00;99920.55;186350;1233;43930;-85
2023/02/21 14:57:53;;;;;;;9.20;4.70;;;;;;;11.35;100.00;99933.30;186322;1233;43906;-85
2023/02/21 15:01:59;;;;;;;7.30;6.50;;;;;;;11.32;100.00;99932.53;186334;1233;43786;-85
2023/02/21 15:06:10;;;;;;;6.60;5.60;;;;;;;11.29;100.00;99938.26;186172;1233;59243;-85
2023/02/21 15:10:24;;;;;;;6.20;4.90;;;;;;;11.26;100.00;99942.95;186235;1234;44049;-86
2023/02/21 15:14:29;;;;;;;8.30;6.20;;;;;;;11.19;100.00;99940.47;186061;1236;43874;-85
2023/02/21 15:18:34;;;;;;;9.70;6.00;;;;;;;11.11;100.00;99944.35;186048;1233;43876;-86
2023/02/21 15:22:36;;;;;;;9.00;7.20;;;;;;;11.06;100.00;99950.25;186121;1233;43712;-86
2023/02/21 15:26:38;;;;;;;7.70;6.60;;;;;;;10.99;100.00;99944.80;186267;1232;58008;-86
2023/02/21 15:30:41;;;;;;;6.60;5.10;;;;;;;11.01;100.00;99951.09;186086;1234;43848;-86
2023/02/21 15:34:48;;;;;;;6.60;5.10;;;;;;;10.97;100.00;99946.29;186138;1233;43967;-84
2023/02/21 15:39:01;;;;;;;5.00;4.00;;;;;;;10.85;100.00;99953.55;186136;1233;43872;-84
2023/02/21 15:43:05;;;;;;;3.40;2.50;;;;;;;10.88;100.00;99951.52;185931;1233;451160;-84
2023/02/21 15:47:11;;;;;;;3.10;1.40;;;;;;;10.83;100.00;99950.54;186227;1233;58161;-84
2023/02/21 15:51:13;;;;;;;2.20;1.80;;;;;;;10.79;100.00;99956.49;186093;1232;44038;-84
2023/02/21 15:55:18;;;;;;;4.70;1.50;;;;;;;10.79;99.97;99961.17;186204;1233;43908;-85
2023/02/21 15:59:26;;;;;;;1.90;1.30;;;;;;;10.75;98.93;99967.90;186242;1234;44033;-84
2023/02/21 16:03:41;;;;;;;3.20;1.70;;;;;;;10.76;97.68;99969.73;186301;1234;43673;-84
2023/02/21 16:07:47;;;;;;;7.80;3.60;;;;;;;10.73;96.20;99973.20;186433;1234;58413;-84
2023/02/21 16:12:10;;;;;;;8.10;4.20;;;;;;;10.67;95.75;99978.13;186351;1233;43800;-84
2023/02/21 16:16:12;;;;;;;5.00;2.90;;;;;;;10.55;96.96;99979.38;186342;1234;43768;-84
2023/02/21 16:20:21;;;;;;;25.40;7.10;;;;;;;10.45;97.70;99982.14;186371;1234;43773;-84
2023/02/21 16:24:29;;;;;;;16.20;3.00;;;;;;;10.35;98.85;99994.66;186309;1234;43722;-85
2023/02/21 16:28:32;;;;;;;15.20;6.20;;;;;;;10.24;100.00;100004.09;186154;1234;57905;-84
2023/02/21 16:32:34;;;;;;;19.40;8.50;;;;;;;10.25;100.00;100013.80;186134;1233;44067;-85
2023/02/21 16:36:38;;;;;;;8.00;3.90;;;;;;;10.12;100.00;100016.63;186216;1233;43932;-84
2023/02/21 16:40:39;;;;;;;3.90;1.20;;;;;;;10.05;100.00;100022.37;186298;1233;43877;-84
2023/02/21 16:44:46;;;;;;;3.30;1.80;;;;;;;9.97;100.00;100028.88;186151;1234;43802;-85
2023/02/21 16:48:48;;;;;;;4.60;1.70;;;;;;;9.90;100.00;100032.98;186134;1234;59446;-84
2023/02/21 16:52:50;;;;;;;5.40;2.90;;;;;;;9.82;100.00;100044.44;186151;1233;43779;-85
2023/02/21 16:56:52;;;;;;;4.80;3.00;;;;;;;9.76;100.00;100052.42;186094;1233;43889;-85
2023/02/21 17:00:57;;;;;;;11.10;5.40;;;;;;;9.73;100.00;100066.48;186093;1236;44128;-84
2023/02/21 17:04:59;;;;;;;6.50;3.70;;;;;;;9.70;100.00;100071.80;186012;1234;43819;-85
2023/02/21 17:09:01;;;;;;;6.70;4.80;;;;;;;9.64;100.00;100080.64;186127;1234;57969;-85
2023/02/21 17:13:03;;;;;;;2.90;2.60;;;;;;;9.63;100.00;100081.58;186134;1233;43797;-84
2023/02/21 17:17:05;;;;;;;2.50;2.10;;;;;;;9.58;100.00;100080.41;185985;1232;43745;-85
2023/02/21 17:21:06;;;;;;;4.50;3.60;;;;;;;9.57;100.00;100083.66;186229;1234;44231;-84
2023/02/21 17:25:09;;;;;;;2.10;1.60;;;;;;;9.59;100.00;100088.83;186326;1233;44096;-85
2023/02/21 17:29:12;;;;;;;3.80;1.60;;;;;;;9.57;100.00;100094.27;186075;1233;57909;-85
2023/02/21 17:33:14;;;;;;;3.00;1.90;;;;;;;9.53;100.00;100094.77;186174;1232;43753;-85
2023/02/21 17:37:16;;;;;;;6.20;3.90;;;;;;;9.56;100.00;100107.25;186291;1233;44037;-84
2023/02/21 17:41:18;;;;;;;8.10;5.50;;;;;;;9.56;100.00;100111.33;186154;1233;43826;-84
2023/02/21 17:45:21;;;;;;;6.20;4.20;;;;;;;9.52;100.00;100116.83;186149;1233;43756;-84
2023/02/21 17:49:25;;;;;;;5.90;3.70;;;;;;;9.50;100.00;100121.02;186145;1232;58073;-84
2023/02/21 17:53:27;;;;;;;44.40;25.00;;;;;;;9.50;100.00;100120.84;186070;1232;43962;-84
2023/02/21 17:57:33;;;;;;;123.40;54.90;;;;;;;9.53;100.00;100126.09;186237;1233;43797;-84
2023/02/21 18:01:35;;;;;;;;;;;;;;;9.53;100.00;100126.98;186086;1234;43798;-84
2023/02/21 18:05:36;;;;;;;74.80;36.80;;;;;;;9.50;100.00;100135.55;186292;1234;43773;-83
2023/02/21 18:09:38;;;;;;;43.90;22.80;;;;;;;9.45;100.00;100138.24;186135;1232;58204;-83
2023/02/21 18:13:40;;;;;;;17.80;10.10;;;;;;;9.40;100.00;100135.27;186171;1232;43610;-84
2023/02/21 18:17:42;;;;;;;13.00;7.10;;;;;;;9.37;100.00;100138.20;186314;1232;43920;-84
2023/02/21 18:21:46;;;;;;;8.80;4.60;;;;;;;9.31;100.00;100144.48;186108;1233;43898;-83
2023/02/21 18:25:48;;;;;;;8.90;4.90;;;;;;;9.29;100.00;100144.09;186163;1233;43775;-83
2023/02/21 18:29:54;;;;;;;4.70;3.50;;;;;;;9.36;100.00;100144.26;186161;1234;57658;-84
2023/02/21 18:33:56;;;;;;;;;;;;;;;9.39;100.00;100147.90;186022;1233;43822;-88
2023/02/21 18:37:57;;;;;;;9.10;5.60;;;;;;;9.42;100.00;100150.49;186386;1233;43449;-89
2023/02/21 18:41:59;;;;;;;7.30;4.40;;;;;;;9.32;100.00;100154.48;186427;1233;44088;-89
2023/02/21 18:46:01;;;;;;;7.00;4.90;;;;;;;9.33;100.00;100158.45;186376;1233;43951;-88
2023/02/21 18:50:05;;;;;;;8.40;6.60;;;;;;;9.29;100.00;100162.86;186409;1233;57876;-88
2023/02/21 18:54:07;;;;;;;7.10;5.50;;;;;;;9.26;100.00;100163.29;186443;1233;43904;-88
2023/02/21 18:58:10;;;;;;;10.90;9.20;;;;;;;9.22;100.00;100167.27;186145;1234;43950;-88
2023/02/21 19:02:14;;;;;;;26.70;15.70;;;;;;;9.22;100.00;100173.14;185976;1234;43797;-87
2023/02/21 19:06:17;;;;;;;8.60;7.60;;;;;;;9.21;100.00;100175.11;186140;1233;43699;-87
2023/02/21 19:10:21;;;;;;;8.70;7.20;;;;;;;9.18;100.00;100179.48;186212;1234;58943;-88
2023/02/21 19:14:23;;;;;;;8.20;6.30;;;;;;;9.14;100.00;100174.82;186209;1233;43722;-88
2023/02/21 19:18:25;;;;;;;5.60;5.00;;;;;;;9.09;100.00;100174.81;186035;1236;43894;-88
2023/02/21 19:22:30;;;;;;;5.20;4.50;;;;;;;9.11;100.00;100179.05;186082;1234;44205;-89
2023/02/21 19:26:32;;;;;;;5.90;3.50;;;;;;;9.10;100.00;100185.36;186113;1233;43751;-88
2023/02/21 19:30:35;;;;;;;5.00;4.00;;;;;;;9.09;100.00;100185.24;186121;1233;58067;-88
2023/02/21 19:34:37;;;;;;;7.00;3.90;;;;;;;9.07;100.00;100187.23;186208;1233;43921;-88
2023/02/21 19:38:39;;;;;;;5.20;3.80;;;;;;;8.99;100.00;100192.22;186260;1233;43678;-88
2023/02/21 19:42:41;;;;;;;5.60;2.50;;;;;;;8.98;100.00;100203.23;186331;1234;43716;-88
2023/02/21 19:46:43;;;;;;;3.70;3.20;;;;;;;8.89;100.00;100212.77;186214;1232;43782;-86
2023/02/21 19:50:46;;;;;;;4.70;3.70;;;;;;;8.73;100.00;100214.19;186155;1233;58025;-86
2023/02/21 19:54:48;;;;;;;6.90;4.50;;;;;;;8.63;100.00;100217.20;186089;1234;43862;-86
2023/02/21 19:58:51;;;;;;;6.40;3.70;;;;;;;8.49;100.00;100213.64;186249;1233;43731;-86
2023/02/21 20:02:53;;;;;;;6.70;4.60;;;;;;;8.33;100.00;100214.38;186213;1234;44054;-86
2023/02/21 20:06:56;;;;;;;7.60;4.20;;;;;;;8.17;100.00;100212.40;186243;1234;43684;-86
2023/02/21 20:10:58;;;;;;;5.00;4.50;;;;;;;8.16;100.00;100223.75;186079;1234;59164;-86
2023/02/21 20:15:00;;;;;;;6.40;4.70;;;;;;;8.24;100.00;100225.69;186229;1233;43816;-86
2023/02/21 20:19:02;;;;;;;6.70;5.10;;;;;;;8.27;100.00;100230.20;186231;1232;44062;-86
2023/02/21 20:23:04;;;;;;;7.00;4.70;;;;;;;8.35;100.00;100231.44;186290;1232;43809;-86
2023/02/21 20:27:05;;;;;;;6.70;3.80;;;;;;;8.44;100.00;100234.46;186297;1232;43717;-87
2023/02/21 20:31:09;;;;;;;6.90;3.60;;;;;;;8.37;100.00;100240.45;186526;1234;58555;-85
2023/02/21 20:35:12;;;;;;;9.10;5.50;;;;;;;8.12;100.00;100239.05;186498;1234;44158;-85
2023/02/21 20:39:20;;;;;;;13.20;9.20;;;;;;;7.98;100.00;100243.81;186468;1234;43758;-85
2023/02/21 20:43:22;;;;;;;13.70;7.80;;;;;;;7.89;100.00;100242.67;186230;1232;43686;-85
2023/02/21 20:47:24;;;;;;;13.00;8.20;;;;;;;7.91;100.00;100240.21;186194;1233;43846;-85
2023/02/21 20:51:34;;;;;;;14.40;8.10;;;;;;;7.97;100.00;100244.91;186442;1234;58272;-86
2023/02/21 20:55:36;;;;;;;12.30;6.70;;;;;;;7.87;100.00;100244.02;186195;1233;43678;-85
2023/02/21 20:59:38;;;;;;;13.90;8.10;;;;;;;7.74;100.00;100246.68;186255;1233;43669;-85
2023/02/21 21:03:40;;;;;;;21.10;11.90;;;;;;;7.67;100.00;100255.10;186518;1233;44072;-85
2023/02/21 21:07:44;;;;;;;23.80;14.80;;;;;;;7.80;100.00;100251.42;186581;1233;43860;-85
2023/02/21 21:11:46;;;;;;;19.50;16.10;;;;;;;7.90;100.00;100253.49;186316;1233;61361;-85